LFBG/CNG METAR and TAF weather

Enter ICAO airport designator
Station Type Date Time Source
LFBG METAR 2019/12/09 00:30 UTC NOAA

LFBG 090030Z AUTO 26021G36KT 230V290 4300 -RA BR FEW016/// SCT025/// BKN038/// ///CB 11/08 Q1017


Station Type Date Time Source
LFBG Decoded METAR 2019/12/09 00:30 UTC NOAA

Cognac, France (LFBG) 45-40N 000-19W 31M
Dec 08, 2019 - 07:30 PM EST / 2019.12.09 0030 UTC
Wind: from the W (260 degrees) at 24 MPH (21 KT) gusting to 41 MPH (36 KT) (direction variable):0
Visibility: 2 mile(s):0
Sky conditions: mostly cloudy
Weather: light rain; mist; Cumulonimbus clouds observed
Temperature: 51 F (11 C)
Dew Point: 46 F (8 C)
Relative Humidity: 81%
Pressure (altimeter): 30.03 in. Hg (1017 hPa)
ob: LFBG 090030Z AUTO 26021G36KT 230V290 4300 -RA BR FEW016/// SCT025/// BKN038/// ///CB 11/08 Q1017
cycle: 0

Station Type Date Time Source
LFBG TAF 2019/12/06 15:44 UTC NOAA

TAF LFBG 061400Z 0615/0715 18008KT 6000 OVC004
TEMPO 0620/0715 3000 -RA

Example: see airport list